Time;durP1;ratioP1;P1;durP2;ratioP2;P2;SDS_P1;SDS_P2;PMS_P1;PMS_P2;Temp;Humidity;BMP_temperature;BMP_pressure;BME280_temperature;BME280_humidity;BME280_pressure;Samples;Min_cycle;Max_cycle;Signal;HPM_P1;HPM_P2
2023/04/18 00:00:42;;;;;;;36.08;25.52;;;12.00;99.90;;;12.19;79.88;102603.25;5056055;28;20131;-70
2023/04/18 00:03:14;;;;;;;34.13;25.67;;;12.00;99.90;;;12.13;80.22;102608.47;5056068;28;20120;-69
2023/04/18 00:05:46;;;;;;;35.78;25.67;;;11.90;99.90;;;12.16;80.11;102605.84;5056326;28;20061;-70
2023/04/18 00:08:16;;;;;;;39.55;27.45;;;11.90;99.90;;;12.13;80.28;102603.16;5056318;28;20094;-70
2023/04/18 00:10:45;;;;;;;39.30;26.80;;;11.90;99.90;;;12.11;80.49;102602.22;5055836;28;20131;-70
2023/04/18 00:13:13;;;;;;;33.70;25.52;;;11.90;99.90;;;12.16;80.37;102607.59;5055868;28;20128;-70
2023/04/18 00:15:43;;;;;;;35.03;26.50;;;12.00;99.90;;;12.09;80.58;102606.63;5056395;28;20140;-70
2023/04/18 00:18:14;;;;;;;37.70;26.43;;;11.90;99.90;;;12.06;80.62;102605.69;5056085;28;20041;-70
2023/04/18 00:20:44;;;;;;;36.75;25.48;;;11.90;99.90;;;12.05;80.93;102610.09;5055463;28;20037;-69
2023/04/18 00:23:15;;;;;;;38.17;27.20;;;11.80;99.90;;;11.94;81.25;102606.34;5056052;28;20544;-69
2023/04/18 00:25:43;;;;;;;36.95;26.55;;;11.70;99.90;;;11.91;81.55;102600.97;5055410;28;20041;-70
2023/04/18 00:28:11;;;;;;;39.97;26.50;;;11.70;99.90;;;11.92;81.54;102597.47;5055313;28;20124;-70
2023/04/18 00:30:40;;;;;;;36.90;26.27;;;11.70;99.90;;;11.89;81.65;102601.81;5055183;28;20549;-69
2023/04/18 00:33:08;;;;;;;40.03;26.83;;;11.70;99.90;;;11.89;81.78;102607.09;5053693;28;20049;-69
2023/04/18 00:35:36;;;;;;;42.47;27.17;;;11.60;99.90;;;11.96;81.70;102609.03;5055532;28;20051;-70
2023/04/18 00:38:05;;;;;;;40.65;26.25;;;11.70;99.90;;;11.95;81.38;102601.91;5055138;28;20432;-69
2023/04/18 00:40:35;;;;;;;36.80;27.75;;;11.70;99.90;;;11.97;81.29;102605.50;5054993;28;20033;-69
2023/04/18 00:43:03;;;;;;;41.47;27.33;;;11.70;99.90;;;11.89;81.38;102592.09;5054130;28;20045;-69
2023/04/18 00:45:33;;;;;;;37.58;26.52;;;11.70;99.90;;;11.84;81.22;102591.13;5055222;28;20288;-70
2023/04/18 00:48:01;;;;;;;36.92;26.23;;;11.70;99.90;;;11.96;81.02;102598.41;5053948;28;20075;-69
2023/04/18 00:50:30;;;;;;;39.25;27.08;;;11.70;99.90;;;11.95;80.88;102592.22;5055174;28;20239;-70
2023/04/18 00:52:59;;;;;;;35.30;25.70;;;11.70;99.90;;;11.97;80.59;102594.88;5055204;28;20047;-69
2023/04/18 00:55:27;;;;;;;38.20;26.10;;;11.70;99.90;;;11.81;80.73;102591.06;5055090;28;20055;-69
2023/04/18 00:57:57;;;;;;;40.00;27.05;;;11.60;99.90;;;11.87;80.45;102592.94;5055084;28;20111;-69
2023/04/18 01:00:26;;;;;;;40.97;26.92;;;11.60;99.90;;;11.95;79.91;102589.56;5053638;28;20045;-70
2023/04/18 01:02:55;;;;;;;35.58;26.02;;;11.70;99.90;;;11.85;79.99;102581.41;5054573;28;20061;-69
2023/04/18 01:05:26;;;;;;;36.13;26.40;;;11.70;99.90;;;11.85;80.13;102582.31;5053677;28;20082;-70
2023/04/18 01:07:57;;;;;;;34.03;25.40;;;11.60;99.90;;;11.79;80.05;102575.13;5053500;28;20053;-70
2023/04/18 01:10:26;;;;;;;37.78;25.35;;;11.60;99.90;;;11.82;79.96;102590.22;5054855;28;20037;-69
2023/04/18 01:13:12;;;;;;;34.80;25.58;;;11.60;99.90;;;11.50;79.76;102547.16;5053431;28;20528;-70
2023/04/18 01:15:42;;;;;;;36.47;25.70;;;11.60;99.90;;;11.59;79.85;102565.00;5070209;28;20041;-69
2023/04/18 01:18:11;;;;;;;37.42;27.23;;;11.50;99.90;;;11.69;79.64;102578.47;5054769;28;20045;-69
2023/04/18 01:20:44;;;;;;;37.42;25.63;;;11.50;99.90;;;11.55;79.40;102573.75;5053210;28;20135;-69
2023/04/18 01:23:13;;;;;;;33.95;24.70;;;11.40;99.90;;;11.67;79.26;102585.50;5070049;28;20379;-70
2023/04/18 01:25:43;;;;;;;38.28;26.65;;;11.40;99.90;;;11.67;78.83;102580.22;5054542;28;20048;-70
2023/04/18 01:28:14;;;;;;;36.78;25.83;;;11.40;99.90;;;11.65;78.49;102578.38;5053269;28;20052;-69
2023/04/18 01:30:42;;;;;;;37.17;24.75;;;11.40;99.90;;;11.60;77.55;102577.38;5069615;28;20112;-69
2023/04/18 01:33:10;;;;;;;32.72;24.83;;;11.40;99.90;;;11.58;77.12;102579.13;5054354;28;20398;-69
2023/04/18 01:35:39;;;;;;;36.00;25.50;;;11.40;99.90;;;11.54;76.98;102586.13;5054525;28;20040;-69
2023/04/18 01:38:07;;;;;;;37.75;24.42;;;11.30;99.90;;;11.56;76.69;102580.84;5052987;28;20238;-69
2023/04/18 01:40:36;;;;;;;35.78;24.10;;;11.40;99.90;;;11.52;76.25;102573.69;5054143;28;20401;-70
2023/04/18 01:43:05;;;;;;;32.83;23.30;;;11.30;99.90;;;11.56;75.67;102572.88;5052878;28;20099;-70
2023/04/18 01:45:34;;;;;;;36.57;24.80;;;11.30;99.90;;;11.43;75.79;102568.22;5052231;28;20049;-70
2023/04/18 01:48:02;;;;;;;34.13;23.83;;;11.20;99.90;;;11.52;75.05;102565.75;5053825;28;20741;-69
2023/04/18 01:50:31;;;;;;;32.20;23.45;;;11.30;99.90;;;11.43;74.33;102569.13;5053698;28;20068;-69
2023/04/18 01:52:59;;;;;;;32.33;21.42;;;11.20;99.90;;;11.30;73.73;102571.50;5053983;28;20051;-69
2023/04/18 01:55:28;;;;;;;28.73;21.17;;;11.10;99.90;;;11.35;73.57;102567.19;5052311;28;20045;-69
2023/04/18 01:57:56;;;;;;;28.33;20.60;;;11.10;99.90;;;11.36;72.61;102575.16;5052562;28;20041;-69
2023/04/18 02:00:26;;;;;;;31.80;21.05;;;11.10;99.90;;;10.99;71.92;102543.50;5052541;28;20048;-69
2023/04/18 02:02:54;;;;;;;26.95;20.48;;;11.00;99.90;;;11.21;71.28;102571.31;5053847;28;20052;-69
2023/04/18 02:05:24;;;;;;;26.15;18.95;;;11.00;99.90;;;11.24;70.88;102566.09;5053730;28;20041;-69
2023/04/18 02:07:53;;;;;;;25.45;18.70;;;11.00;99.90;;;11.24;70.19;102572.28;5053840;28;20048;-69
2023/04/18 02:10:22;;;;;;;26.52;19.27;;;11.00;99.90;;;11.23;69.38;102565.19;5053715;28;20051;-69
2023/04/18 02:12:50;;;;;;;23.10;18.50;;;11.10;99.90;;;11.19;69.00;102571.28;5053636;28;20055;-70
2023/04/18 02:15:19;;;;;;;22.63;17.85;;;11.00;99.90;;;11.13;68.39;102562.34;5053580;28;20045;-70
2023/04/18 02:17:49;;;;;;;26.05;18.02;;;11.00;99.90;;;11.13;68.05;102557.03;5053247;28;20509;-69
2023/04/18 02:20:17;;;;;;;23.67;18.55;;;10.90;99.90;;;11.16;67.31;102558.00;5053502;28;20089;-69
2023/04/18 02:22:47;;;;;;;23.38;17.75;;;11.00;99.90;;;10.96;66.70;102550.47;5053175;28;20045;-69
2023/04/18 02:25:15;;;;;;;20.25;16.23;;;10.90;99.90;;;10.84;66.63;102552.00;5053417;28;20367;-69
2023/04/18 02:27:43;;;;;;;22.58;16.20;;;10.70;99.90;;;10.81;66.51;102540.47;5053421;28;20049;-69
2023/04/18 02:30:12;;;;;;;22.40;16.42;;;10.70;99.90;;;10.84;66.15;102549.38;5068712;28;20383;-69
2023/04/18 02:32:41;;;;;;;20.60;15.70;;;10.60;99.90;;;10.87;65.83;102556.47;5052747;28;20557;-69
2023/04/18 02:35:11;;;;;;;20.67;15.45;;;10.70;99.90;;;10.53;65.77;102528.38;5051901;28;20387;-69
2023/04/18 02:37:40;;;;;;;20.50;15.35;;;10.60;99.90;;;10.76;65.66;102550.94;5053305;28;20071;-69
2023/04/18 02:40:10;;;;;;;20.13;14.35;;;10.50;99.90;;;10.77;65.42;102550.09;5051591;28;20044;-69
2023/04/18 02:42:38;;;;;;;21.67;15.05;;;10.60;99.90;;;10.66;64.92;102543.69;5052794;28;20459;-69
2023/04/18 02:45:08;;;;;;;20.05;15.48;;;10.60;99.90;;;10.69;65.05;102549.03;5068445;28;20033;-69
2023/04/18 02:47:38;;;;;;;18.63;14.57;;;10.50;99.90;;;10.53;64.86;102568.06;5068516;28;20453;-69
2023/04/18 02:50:23;;;;;;;18.17;14.73;;;10.50;99.90;;;10.60;64.68;102550.59;5051807;28;20051;-69
2023/04/18 02:52:54;;;;;;;16.75;14.05;;;10.40;99.90;;;10.60;64.59;102558.53;5051775;28;20095;-69
2023/04/18 02:55:27;;;;;;;19.50;14.68;;;10.40;99.90;;;10.61;64.29;102561.19;5051748;28;20049;-69
2023/04/18 02:57:58;;;;;;;18.10;14.63;;;10.40;99.90;;;10.60;64.29;102558.53;5050472;28;20556;-69
2023/04/18 03:00:45;;;;;;;21.15;14.45;;;10.40;99.90;;;10.58;64.05;102552.31;5052940;28;20056;-69
2023/04/18 03:03:16;;;;;;;20.60;14.88;;;10.40;99.90;;;10.51;63.91;102545.97;5052899;28;20130;-69
2023/04/18 03:05:56;;;;;;;18.92;15.00;;;10.30;99.90;;;10.44;63.47;102541.41;5051617;28;20045;-69
2023/04/18 03:08:25;;;;;;;20.63;15.45;;;10.30;99.90;;;10.49;63.76;102552.97;5051573;28;20040;-69
2023/04/18 03:10:54;;;;;;;23.38;16.13;;;10.30;99.90;;;10.36;63.46;102552.66;5051547;28;20465;-69
2023/04/18 03:13:25;;;;;;;22.42;15.07;;;10.20;99.90;;;10.27;62.85;102528.66;5068245;28;20052;-69
2023/04/18 03:15:54;;;;;;;19.13;15.02;;;10.30;99.90;;;10.36;63.09;102555.31;5068170;28;20055;-69
2023/04/18 03:18:23;;;;;;;23.30;15.25;;;10.20;99.90;;;10.30;63.11;102558.69;5051266;28;20052;-69
2023/04/18 03:20:55;;;;;;;23.55;16.77;;;10.10;99.90;;;10.06;63.09;102567.75;5051464;28;20047;-69
2023/04/18 03:23:24;;;;;;;22.13;16.17;;;10.00;99.90;;;10.20;63.06;102561.09;5051384;28;20498;-69
2023/04/18 03:25:53;;;;;;;25.67;15.95;;;10.00;99.90;;;10.24;62.82;102562.97;5052660;28;20148;-70
2023/04/18 03:28:21;;;;;;;22.90;16.33;;;10.00;99.90;;;10.26;62.88;102555.97;5051556;28;20387;-69
2023/04/18 03:30:50;;;;;;;18.75;15.02;;;10.10;99.90;;;10.20;62.66;102561.09;5051275;28;20090;-69
2023/04/18 03:33:19;;;;;;;22.75;15.82;;;10.00;99.90;;;10.35;62.95;102567.66;5051031;28;20059;-69
2023/04/18 03:35:50;;;;;;;22.35;16.27;;;10.10;99.90;;;10.31;62.05;102562.25;5051315;28;20103;-69
2023/04/18 03:38:20;;;;;;;22.45;16.52;;;10.10;99.90;;;10.32;61.94;102564.91;5051216;28;20052;-69
2023/04/18 03:40:49;;;;;;;23.48;16.75;;;10.10;99.90;;;10.19;62.04;102556.66;5067972;28;20049;-69
2023/04/18 03:43:24;;;;;;;24.38;16.55;;;10.10;99.90;;;10.36;61.96;102571.16;5084852;28;20379;-69
2023/04/18 03:45:52;;;;;;;20.58;16.42;;;10.10;99.90;;;10.32;61.38;102564.91;5052435;28;20120;-69
2023/04/18 03:48:21;;;;;;;19.30;15.70;;;10.10;99.90;;;10.34;61.43;102571.16;5051108;28;20390;-69
2023/04/18 03:50:50;;;;;;;20.00;15.40;;;10.20;99.90;;;10.28;60.76;102563.06;5051187;28;20088;-69
2023/04/18 03:53:20;;;;;;;18.70;15.27;;;10.10;99.90;;;10.21;61.34;102558.50;5052375;28;20041;-69
2023/04/18 03:55:49;;;;;;;22.92;15.23;;;10.10;99.90;;;10.27;61.64;102568.31;5050836;28;20048;-69
2023/04/18 03:58:22;;;;;;;22.23;15.68;;;10.10;99.90;;;10.27;61.47;102565.69;5051081;28;20060;-70
2023/04/18 04:00:52;;;;;;;19.15;15.57;;;10.10;99.90;;;10.24;61.06;102562.97;5051096;28;20139;-69
2023/04/18 04:03:20;;;;;;;22.40;14.85;;;10.10;99.90;;;10.21;60.82;102566.44;5052403;28;20115;-69
2023/04/18 04:05:49;;;;;;;22.27;15.68;;;10.00;99.90;;;10.22;60.77;102564.69;5050995;28;20450;-69
2023/04/18 04:08:19;;;;;;;26.60;15.50;;;10.00;99.90;;;10.24;60.68;102562.97;5051072;28;20040;-69
2023/04/18 04:10:47;;;;;;;24.23;16.63;;;10.10;99.90;;;10.23;60.36;102561.16;5055959;28;20045;-69
2023/04/18 04:13:16;;;;;;;23.65;15.60;;;10.10;99.90;;;10.17;60.32;102574.22;5054645;28;20295;-70
2023/04/18 04:15:44;;;;;;;21.20;16.48;;;10.00;99.90;;;10.15;60.62;102568.00;5054583;28;20122;-69
2023/04/18 04:18:12;;;;;;;21.67;15.98;;;10.00;99.90;;;10.18;60.23;102568.09;5054554;28;20148;-69
2023/04/18 04:20:45;;;;;;;22.85;16.23;;;10.00;99.90;;;10.19;60.13;102575.16;5054633;28;20072;-69
2023/04/18 04:23:24;;;;;;;22.88;16.15;;;10.00;99.90;;;10.07;60.13;102564.25;5054457;28;20045;-69
2023/04/18 04:25:53;;;;;;;23.58;16.63;;;10.00;99.90;;;10.07;60.51;102565.16;5071138;28;20094;-69
2023/04/18 04:28:35;;;;;;;22.42;16.58;;;9.90;99.90;;;10.02;60.17;102567.69;5054403;28;20065;-69
2023/04/18 04:31:07;;;;;;;22.25;17.17;;;9.90;99.90;;;10.09;60.33;102578.41;5054555;28;20480;-69
2023/04/18 04:33:37;;;;;;;27.40;17.65;;;9.90;99.90;;;10.10;60.75;102564.38;5053987;28;20166;-70
2023/04/18 04:36:15;;;;;;;24.48;17.75;;;9.90;99.90;;;10.11;60.45;102569.69;5054252;28;20528;-69
2023/04/18 04:38:49;;;;;;;20.77;16.23;;;9.90;99.90;;;9.99;59.98;102567.59;5054205;28;20139;-69
2023/04/18 04:41:19;;;;;;;26.15;17.15;;;9.90;99.90;;;10.03;60.93;102568.56;5054060;28;20139;-69
2023/04/18 04:43:49;;;;;;;24.38;16.35;;;9.80;99.90;;;10.09;60.68;102571.38;5055384;28;20056;-69
2023/04/18 04:46:21;;;;;;;23.88;17.02;;;9.90;99.90;;;10.19;60.44;102577.81;5053939;28;20045;-69
2023/04/18 04:48:51;;;;;;;25.02;17.52;;;10.00;99.90;;;10.25;60.54;102581.50;5053937;28;20045;-69
2023/04/18 04:51:20;;;;;;;22.83;16.63;;;10.00;99.90;;;10.30;60.47;102579.00;5055181;28;20041;-69
2023/04/18 04:53:49;;;;;;;23.20;16.52;;;10.10;99.90;;;10.27;60.24;102573.59;5053841;28;20167;-69
2023/04/18 04:56:18;;;;;;;22.08;17.52;;;10.10;99.90;;;10.30;60.71;102574.56;5055061;28;20132;-69
2023/04/18 04:58:47;;;;;;;25.80;17.73;;;10.10;99.90;;;10.20;60.76;102566.41;5053778;28;20430;-69
2023/04/18 05:01:23;;;;;;;25.98;17.98;;;10.10;99.90;;;10.28;61.01;102580.72;5053700;28;20056;-69
2023/04/18 05:03:52;;;;;;;24.60;16.90;;;10.10;99.90;;;10.33;60.87;102589.63;5054883;28;20098;-69
2023/04/18 05:06:21;;;;;;;23.52;17.13;;;10.10;99.90;;;10.15;60.86;102560.09;5054666;28;20052;-69
2023/04/18 05:08:51;;;;;;;25.73;17.48;;;10.10;99.90;;;10.31;61.11;102575.47;5054579;28;20512;-69
2023/04/18 05:11:19;;;;;;;22.57;18.17;;;10.10;99.90;;;10.43;60.52;102586.34;5054623;28;20067;-69
2023/04/18 05:13:48;;;;;;;22.55;17.45;;;10.20;99.90;;;10.42;61.06;102584.53;5054460;28;20783;-69
2023/04/18 05:16:16;;;;;;;27.55;17.70;;;10.20;99.90;;;10.41;60.77;102588.06;5054394;28;20041;-69
2023/04/18 05:18:45;;;;;;;25.73;17.10;;;10.20;99.90;;;10.38;61.08;102591.53;5054395;28;20098;-70
2023/04/18 05:21:13;;;;;;;25.70;18.67;;;10.30;99.90;;;10.41;61.31;102598.66;5052302;28;20057;-69
2023/04/18 05:23:41;;;;;;;23.15;17.77;;;10.20;99.90;;;10.31;61.69;102583.41;5054189;28;20041;-70
2023/04/18 05:26:11;;;;;;;24.45;17.85;;;10.10;99.90;;;10.15;61.77;102584.78;5054229;28;20408;-69
2023/04/18 05:28:40;;;;;;;22.05;17.52;;;10.10;99.90;;;10.12;62.28;102595.28;5054448;28;20051;-69
2023/04/18 05:31:08;;;;;;;23.25;17.40;;;10.00;99.90;;;10.07;63.00;102601.25;5054176;28;20083;-69
2023/04/18 05:33:36;;;;;;;27.52;17.85;;;9.90;99.90;;;10.19;63.09;102601.63;5054396;28;20057;-69
2023/04/18 05:36:06;;;;;;;24.38;18.52;;;10.00;99.90;;;10.19;62.96;102602.50;5054218;28;20045;-69
2023/04/18 05:38:34;;;;;;;26.17;18.77;;;10.00;99.90;;;10.08;63.32;102611.00;5054342;28;20037;-70
2023/04/18 05:41:03;;;;;;;26.15;18.55;;;10.00;99.90;;;9.97;63.54;102602.78;5054151;28;20479;-69
2023/04/18 05:43:32;;;;;;;30.10;19.17;;;9.90;99.90;;;9.95;63.95;102605.38;5054042;28;20045;-69
2023/04/18 05:46:01;;;;;;;31.25;18.20;;;9.80;99.90;;;10.05;64.54;102609.16;5053775;28;20120;-69
2023/04/18 05:48:29;;;;;;;26.88;17.85;;;9.80;99.90;;;10.04;64.29;102602.97;5052701;28;20044;-69
2023/04/18 05:50:57;;;;;;;25.40;18.35;;;9.90;99.90;;;9.98;65.10;102612.50;5053982;28;20053;-70
2023/04/18 05:53:26;;;;;;;27.00;20.25;;;9.80;99.90;;;10.11;64.98;102608.44;5053694;28;20056;-69
2023/04/18 05:55:56;;;;;;;26.27;19.08;;;9.90;99.90;;;10.04;65.28;102602.97;5053941;28;20069;-69
2023/04/18 05:58:24;;;;;;;27.92;18.90;;;9.90;99.90;;;10.06;65.25;102603.03;5053656;28;20077;-70
2023/04/18 06:00:54;;;;;;;25.20;18.73;;;9.90;99.90;;;10.13;65.39;102615.59;5052578;28;20053;-69
2023/04/18 06:03:23;;;;;;;27.63;20.13;;;9.90;99.90;;;10.09;65.73;102611.03;5053735;28;20040;-69
2023/04/18 06:05:51;;;;;;;26.88;18.55;;;9.90;99.90;;;10.17;65.92;102613.91;5053345;28;20487;-69
2023/04/18 06:08:20;;;;;;;24.92;18.05;;;10.00;99.90;;;10.16;66.17;102610.38;5053305;28;20037;-70
2023/04/18 06:10:48;;;;;;;22.83;18.00;;;10.00;99.90;;;10.12;65.94;102615.53;5053929;28;20045;-69
2023/04/18 06:13:16;;;;;;;26.38;18.67;;;10.00;99.90;;;10.20;66.54;102622.78;5085401;28;20084;-69
2023/04/18 06:15:45;;;;;;;24.88;18.38;;;10.00;99.90;;;10.07;66.72;102614.47;5053175;28;20045;-70
2023/04/18 06:18:14;;;;;;;25.38;19.00;;;10.00;99.90;;;10.10;67.16;102627.84;5053544;28;20132;-69
2023/04/18 06:20:44;;;;;;;25.00;19.23;;;9.90;99.90;;;10.12;67.08;102613.81;5053123;28;20049;-69
2023/04/18 06:23:12;;;;;;;27.85;19.17;;;10.00;99.90;;;10.17;67.54;102616.53;5053629;28;20071;-70
2023/04/18 06:25:41;;;;;;;27.67;18.98;;;10.00;99.90;;;10.17;67.96;102621.84;5053481;28;20131;-69
2023/04/18 06:28:10;;;;;;;25.92;18.77;;;10.00;99.90;;;10.09;67.96;102621.59;5053462;28;20258;-68
2023/04/18 06:30:38;;;;;;;24.55;18.95;;;10.00;99.90;;;9.98;68.50;102617.81;5053106;28;20406;-67
2023/04/18 06:33:09;;;;;;;22.27;19.35;;;9.80;99.90;;;9.89;68.98;102623.72;5052744;28;20083;-66
2023/04/18 06:35:39;;;;;;;;;;;9.80;99.90;;;10.00;69.23;102632.84;5053348;28;20059;-70
2023/04/18 06:38:08;;;;;;;26.92;18.70;;;9.80;99.90;;;9.91;69.54;102627.31;5053463;28;19921;-71
2023/04/18 06:40:36;;;;;;;26.25;18.15;;;9.80;99.90;;;9.99;69.87;102617.84;5051788;28;20498;-68
2023/04/18 06:43:05;;;;;;;23.65;19.17;;;9.80;99.90;;;10.02;69.83;102635.53;5052838;28;20052;-67
2023/04/18 06:45:33;;;;;;;24.75;19.10;;;9.80;99.90;;;10.01;70.13;102628.44;5052977;28;20052;-76
2023/04/18 06:48:03;;;;;;;23.67;19.10;;;9.80;99.90;;;10.01;69.94;102629.34;5052757;28;20041;-71
2023/04/18 06:50:32;;;;;;;22.75;18.08;;;9.80;99.90;;;10.04;70.37;102634.69;5053046;28;20052;-78
2023/04/18 06:53:01;;;;;;;23.08;18.98;;;9.90;99.90;;;10.17;70.03;102633.31;5053020;28;20146;-73
2023/04/18 06:55:30;;;;;;;21.50;17.93;;;10.00;99.90;;;10.23;70.07;102635.22;5051638;28;20078;-75
2023/04/18 06:58:00;;;;;;;25.35;19.35;;;10.10;99.90;;;10.19;70.11;102633.34;5052555;28;20506;-68
2023/04/18 07:00:28;;;;;;;23.03;17.73;;;10.00;99.90;;;10.15;70.46;102629.72;5052663;28;20497;-69
2023/04/18 07:02:56;;;;;;;23.63;18.20;;;10.00;99.90;;;10.17;70.34;102635.97;5052439;28;20052;-69
2023/04/18 07:05:25;;;;;;;21.45;18.25;;;10.00;99.90;;;10.21;70.63;102635.19;5052341;28;20044;-70
2023/04/18 07:07:53;;;;;;;24.30;17.83;;;10.00;99.90;;;10.15;71.06;102626.19;5051550;28;20052;-69
2023/04/18 07:10:23;;;;;;;20.90;17.95;;;10.00;99.90;;;10.28;70.95;102629.19;5052526;28;20099;-70
2023/04/18 07:12:52;;;;;;;23.48;18.38;;;10.10;99.90;;;10.39;70.96;102632.09;5052756;28;20106;-68
2023/04/18 07:15:20;;;;;;;21.55;18.45;;;10.20;99.90;;;10.37;71.00;102628.53;5052432;28;20120;-70
2023/04/18 07:17:48;;;;;;;23.92;17.92;;;10.20;99.90;;;10.39;70.80;102622.44;5052946;28;20065;-69
2023/04/18 07:20:17;;;;;;;22.95;17.50;;;10.20;99.90;;;10.41;70.52;102611.88;5052370;28;20115;-69
2023/04/18 07:22:46;;;;;;;20.48;16.98;;;10.30;99.90;;;10.46;70.63;102628.75;5052339;28;20041;-68
2023/04/18 07:25:15;;;;;;;23.25;16.35;;;10.30;99.90;;;10.34;70.89;102617.84;5052331;28;20402;-69
2023/04/18 07:27:46;;;;;;;24.20;17.40;;;10.20;99.90;;;10.36;71.20;102622.34;5052570;28;20139;-66
2023/04/18 07:30:14;;;;;;;;;;;10.20;99.90;;;10.27;71.71;102630.06;5052827;28;20491;-68
2023/04/18 07:32:43;;;;;;;20.55;17.60;;;10.20;99.90;;;10.28;72.18;102631.81;5051940;28;19921;-69
2023/04/18 07:35:11;;;;;;;21.88;17.15;;;10.10;99.90;;;10.20;71.78;102636.03;5052011;28;20410;-69
2023/04/18 07:37:40;;;;;;;25.17;17.30;;;10.10;99.90;;;10.29;72.12;102632.72;5052183;28;20067;-68
2023/04/18 07:40:10;;;;;;;19.38;16.15;;;10.10;99.90;;;10.21;72.03;102613.13;5052798;28;20041;-62
2023/04/18 07:42:38;;;;;;;22.13;16.23;;;10.10;99.90;;;10.27;72.46;102632.69;5052507;28;20128;-70
2023/04/18 07:45:09;;;;;;;21.50;16.80;;;10.10;99.90;;;10.33;72.60;102638.16;5055592;28;20119;-69
2023/04/18 07:47:39;;;;;;;22.15;18.08;;;10.20;99.90;;;10.38;72.94;102635.59;5056233;28;20065;-68
2023/04/18 07:50:09;;;;;;;21.63;17.45;;;10.20;99.90;;;10.40;72.81;102629.50;5056374;28;20049;-71
2023/04/18 07:52:37;;;;;;;23.95;17.40;;;10.20;99.90;;;10.35;72.64;102628.50;5056313;28;20040;-70
2023/04/18 07:55:08;;;;;;;19.88;16.70;;;10.30;99.90;;;10.28;72.87;102623.88;5056179;28;20124;-70
2023/04/18 07:57:36;;;;;;;25.00;16.88;;;10.20;99.90;;;10.20;73.06;102593.72;5056492;28;20048;-71
2023/04/18 08:00:09;;;;;;;21.48;17.30;;;10.20;99.90;;;10.41;73.12;102610.13;5055759;28;20048;-68
2023/04/18 08:02:40;;;;;;;21.25;17.77;;;10.30;99.90;;;10.42;73.31;102622.47;5056107;28;20456;-70
2023/04/18 08:05:09;;;;;;;22.33;16.73;;;10.20;99.90;;;10.28;73.23;102586.00;5055962;28;20541;-70
2023/04/18 08:07:38;;;;;;;22.20;16.75;;;10.30;99.90;;;10.41;72.71;102614.53;5055991;28;20394;-71
2023/04/18 08:10:08;;;;;;;22.40;16.90;;;10.30;99.90;;;10.32;73.54;102630.13;5055692;28;20045;-70
2023/04/18 08:12:36;;;;;;;23.23;17.05;;;10.20;99.90;;;10.43;74.04;102636.63;5071351;28;20091;-70
2023/04/18 08:15:06;;;;;;;21.77;16.92;;;10.20;99.90;;;10.44;73.80;102634.00;5055685;28;20067;-79
2023/04/18 08:17:37;;;;;;;20.03;15.83;;;10.30;99.90;;;10.60;73.73;102635.25;5056189;28;20131;-77
2023/04/18 08:20:07;;;;;;;20.83;16.98;;;10.40;99.90;;;10.67;73.48;102632.78;5054625;28;20466;-70
2023/04/18 08:22:35;;;;;;;19.83;16.80;;;10.50;99.90;;;10.70;73.04;102635.50;5055836;28;20052;-70
2023/04/18 08:25:24;;;;;;;21.88;16.42;;;10.50;99.90;;;10.74;72.71;102631.19;5055356;28;20041;-70
2023/04/18 08:27:52;;;;;;;21.13;16.55;;;10.60;99.90;;;10.61;73.13;102637.94;5055874;28;20398;-70
2023/04/18 08:30:20;;;;;;;19.95;16.27;;;10.50;99.90;;;10.73;73.00;102634.69;5055356;28;20371;-69
2023/04/18 08:32:50;;;;;;;18.13;15.30;;;10.50;99.90;;;10.65;72.51;102630.97;5054981;28;20115;-70
2023/04/18 08:35:19;;;;;;;18.38;14.65;;;10.50;99.90;;;10.70;72.34;102631.97;5054938;28;20061;-70
2023/04/18 08:37:47;;;;;;;21.88;15.75;;;10.50;99.90;;;10.81;72.62;102644.59;5055175;28;20069;-72
2023/04/18 08:40:15;;;;;;;19.65;14.75;;;10.60;99.90;;;10.82;71.99;102641.09;5055098;28;20414;-71
2023/04/18 08:42:44;;;;;;;18.70;15.30;;;10.70;99.90;;;10.89;72.16;102631.53;5055605;28;20152;-71
2023/04/18 08:45:13;;;;;;;24.38;15.52;;;10.80;99.90;;;10.94;72.06;102639.59;5055322;28;20092;-70
2023/04/18 08:47:42;;;;;;;21.08;15.07;;;10.70;99.90;;;10.96;72.09;102628.16;5055000;28;20525;-71
2023/04/18 08:50:12;;;;;;;23.85;15.48;;;10.80;99.90;;;10.94;72.67;102621.94;5054956;28;20051;-71
2023/04/18 08:52:47;;;;;;;16.47;14.50;;;10.80;99.90;;;11.16;72.42;102623.31;5055225;28;20079;-71
2023/04/18 08:55:17;;;;;;;19.23;14.98;;;11.00;99.90;;;11.18;71.46;102629.53;5054858;28;20687;-70
2023/04/18 08:57:46;;;;;;;18.52;14.77;;;11.00;99.90;;;11.10;71.33;102626.72;5054797;28;20098;-71
2023/04/18 09:00:17;;;;;;;22.50;15.77;;;10.90;99.90;;;11.16;71.57;102629.50;5054776;28;20092;-71
2023/04/18 09:02:46;;;;;;;19.33;14.43;;;11.00;99.90;;;10.95;71.27;102626.38;5055098;28;20049;-70
2023/04/18 09:05:18;;;;;;;17.25;14.40;;;10.90;99.90;;;10.82;71.94;102613.72;5054541;28;20044;-70
2023/04/18 09:07:48;;;;;;;18.50;15.10;;;10.80;99.90;;;11.07;72.14;102631.06;5054757;28;20069;-70
2023/04/18 09:10:27;;;;;;;18.55;15.43;;;10.80;99.90;;;11.20;71.82;102635.75;5054586;28;20049;-71
2023/04/18 09:12:57;;;;;;;20.05;15.48;;;11.00;99.90;;;11.36;71.47;102616.66;5054862;28;20442;-70
2023/04/18 09:15:28;;;;;;;17.90;14.33;;;11.10;99.90;;;11.39;71.13;102620.28;5054864;28;20064;-71
2023/04/18 09:17:59;;;;;;;20.00;15.15;;;11.20;99.90;;;10.53;71.99;102583.94;5054467;28;20127;-70
2023/04/18 09:20:36;;;;;;;18.00;14.10;;;10.90;99.90;;;11.20;71.53;102623.41;5055093;28;20118;-70
2023/04/18 09:23:09;;;;;;;16.00;14.15;;;11.00;99.90;;;11.32;71.39;102623.66;5054681;28;20037;-71
2023/04/18 09:25:45;;;;;;;18.90;13.82;;;11.10;99.90;;;11.42;70.81;102636.22;5054724;28;20138;-70
2023/04/18 09:28:26;;;;;;;17.15;14.57;;;11.20;99.90;;;11.45;70.24;102638.94;5054248;28;20048;-70
2023/04/18 09:30:56;;;;;;;17.08;14.68;;;11.20;99.90;;;11.57;70.31;102625.94;5054237;28;20068;-70
2023/04/18 09:33:28;;;;;;;17.00;13.45;;;11.30;99.90;;;11.37;70.42;102616.69;5054241;28;20040;-71
2023/04/18 09:36:16;;;;;;;17.63;13.98;;;11.30;99.90;;;11.35;70.29;102599.88;5053957;28;20426;-70
2023/04/18 09:38:45;;;;;;;16.17;13.70;;;11.30;99.90;;;11.30;69.70;102612.16;5054326;28;20120;-70
2023/04/18 09:41:15;;;;;;;16.58;13.35;;;11.30;99.90;;;11.56;69.96;102620.59;5054529;28;20121;-71
2023/04/18 09:43:48;;;;;;;14.70;12.88;;;11.30;99.90;;;11.73;69.31;102612.13;5054261;28;20110;-73
2023/04/18 09:46:17;;;;;;;29.05;14.25;;;11.50;99.90;;;11.87;69.03;102609.75;5054110;28;20386;-70
2023/04/18 09:48:45;;;;;;;16.83;14.23;;;11.70;99.90;;;11.93;68.79;102630.16;5053850;28;20045;-72
2023/04/18 09:51:16;;;;;;;15.73;14.02;;;11.70;99.90;;;11.88;69.10;102621.25;5054123;28;20044;-72
2023/04/18 09:53:46;;;;;;;18.92;13.80;;;11.70;99.90;;;11.92;68.67;102610.75;5053868;28;20556;-70
2023/04/18 09:56:24;;;;;;;16.23;14.17;;;11.70;99.90;;;11.94;68.69;102618.72;5054287;28;20124;-70
2023/04/18 09:58:57;;;;;;;17.90;14.55;;;11.80;99.90;;;11.94;68.91;102624.91;5054246;28;20045;-71
2023/04/18 10:01:27;;;;;;;16.67;14.10;;;11.70;99.90;;;12.22;69.03;102613.00;5053918;28;20041;-70
2023/04/18 10:03:57;;;;;;;;;;;12.00;99.90;;;12.39;68.72;102611.50;5053999;28;20036;-71
2023/04/18 10:06:29;;;;;;;18.80;14.25;;;12.20;99.90;;;12.21;68.59;102611.25;5053162;28;19921;-71
2023/04/18 10:08:57;;;;;;;16.48;14.38;;;12.10;99.90;;;12.52;67.81;102608.22;5053429;28;20068;-71
2023/04/18 10:11:26;;;;;;;16.88;14.00;;;12.30;99.90;;;12.37;66.92;102578.75;5053459;28;20475;-71